createdAt,value
2023-02-15T00:01:37.818Z,0.80
2023-02-15T00:04:16.439Z,0.95
2023-02-15T00:06:45.699Z,1.30
2023-02-15T00:09:15.189Z,1.05
2023-02-15T00:11:52.507Z,0.70
2023-02-15T00:14:25.503Z,0.93
2023-02-15T00:17:00.312Z,1.10
2023-02-15T00:19:29.595Z,0.90
2023-02-15T00:21:58.862Z,0.98
2023-02-15T00:24:28.462Z,0.85
2023-02-15T00:26:57.582Z,0.98
2023-02-15T00:29:26.857Z,1.30
2023-02-15T00:31:58.073Z,1.05
2023-02-15T00:34:29.519Z,1.02
2023-02-15T00:39:40.245Z,1.23
2023-02-15T00:42:09.334Z,0.80
2023-02-15T00:44:39.956Z,1.10
2023-02-15T00:47:10.950Z,1.15
2023-02-15T00:49:46.558Z,1.20
2023-02-15T00:52:15.775Z,0.60
2023-02-15T00:54:46.626Z,1.08
2023-02-15T00:57:15.755Z,1.33
2023-02-15T00:59:45.078Z,0.77
2023-02-15T01:02:16.224Z,0.70
2023-02-15T01:04:45.714Z,0.95
2023-02-15T01:07:14.839Z,1.23
2023-02-15T01:09:44.087Z,0.95
2023-02-15T01:12:13.457Z,1.30
2023-02-15T01:14:42.616Z,0.73
2023-02-15T01:17:11.803Z,1.27
2023-02-15T01:19:43.021Z,1.00
2023-02-15T01:22:12.097Z,0.90
2023-02-15T01:24:41.151Z,1.52
2023-02-15T01:27:15.402Z,1.10
2023-02-15T01:29:46.250Z,0.88
2023-02-15T01:32:15.440Z,1.00
2023-02-15T01:34:48.339Z,0.90
2023-02-15T01:37:17.861Z,0.73
2023-02-15T01:39:47.536Z,0.95
2023-02-15T01:42:16.832Z,1.20
2023-02-15T01:44:56.735Z,0.98
2023-02-15T01:47:32.573Z,0.80
2023-02-15T01:50:17.127Z,1.00
2023-02-15T01:52:57.314Z,0.88
2023-02-15T01:55:39.083Z,1.15
2023-02-15T01:58:09.475Z,1.00
2023-02-15T02:00:38.660Z,0.80
2023-02-15T02:03:13.680Z,1.30
2023-02-15T02:05:51.468Z,0.95
2023-02-15T02:08:21.187Z,1.10
2023-02-15T02:10:50.310Z,1.33
2023-02-15T02:13:24.966Z,0.73
2023-02-15T02:16:20.836Z,0.90
2023-02-15T02:19:01.980Z,0.73
2023-02-15T02:21:59.187Z,0.90
2023-02-15T02:25:01.146Z,1.27
2023-02-15T02:27:40.640Z,0.95
2023-02-15T02:30:37.796Z,1.65
2023-02-15T02:33:40.141Z,1.38
2023-02-15T02:39:09.215Z,1.00
2023-02-15T02:44:32.324Z,0.80
2023-02-15T02:47:14.712Z,0.90
2023-02-15T02:49:46.185Z,1.10
2023-02-15T02:52:42.972Z,1.40
2023-02-15T02:55:16.265Z,0.95
2023-02-15T02:57:54.134Z,1.05
2023-02-15T03:00:24.718Z,1.02
2023-02-15T03:02:59.006Z,1.17
2023-02-15T03:05:32.833Z,1.13
2023-02-15T03:08:10.357Z,1.08
2023-02-15T03:10:41.814Z,1.30
2023-02-15T03:16:01.165Z,1.15
2023-02-15T03:18:37.072Z,0.98
2023-02-15T03:21:22.530Z,0.80
2023-02-15T03:24:05.019Z,1.13
2023-02-15T03:26:37.173Z,1.20
2023-02-15T03:29:10.162Z,1.27
2023-02-15T03:31:43.652Z,1.30
2023-02-15T03:34:15.449Z,0.80
2023-02-15T03:36:49.258Z,1.20
2023-02-15T03:39:30.669Z,1.00
2023-02-15T03:42:08.205Z,0.88
2023-02-15T03:44:58.124Z,1.02
2023-02-15T03:47:29.954Z,1.20
2023-02-15T03:50:29.379Z,1.60
2023-02-15T03:53:11.540Z,1.30
2023-02-15T03:55:43.040Z,1.30
2023-02-15T03:58:25.609Z,1.40
2023-02-15T04:01:13.553Z,1.77
2023-02-15T04:03:53.443Z,1.55
2023-02-15T04:06:28.354Z,2.08
2023-02-15T04:09:10.417Z,1.45
2023-02-15T04:11:47.775Z,1.48
2023-02-15T04:14:29.782Z,1.30
2023-02-15T04:17:11.389Z,1.02
2023-02-15T04:19:53.552Z,1.98
2023-02-15T04:25:14.210Z,1.42
2023-02-15T04:27:47.301Z,1.73
2023-02-15T04:30:19.084Z,1.00
2023-02-15T04:32:53.509Z,0.98
2023-02-15T04:35:22.893Z,1.45
2023-02-15T04:37:52.057Z,1.33
2023-02-15T04:40:21.896Z,1.55
2023-02-15T04:42:53.246Z,1.70
2023-02-15T04:45:27.728Z,1.58
2023-02-15T04:47:56.969Z,1.35
2023-02-15T04:50:26.162Z,1.10
2023-02-15T04:55:35.639Z,1.42
2023-02-15T04:58:06.691Z,1.20
2023-02-15T05:00:37.238Z,1.65
2023-02-15T05:03:06.465Z,1.30
2023-02-15T05:05:41.153Z,1.40
2023-02-15T05:08:10.316Z,1.27
2023-02-15T05:10:39.560Z,1.35
2023-02-15T05:13:15.964Z,1.25
2023-02-15T05:15:50.234Z,0.95
2023-02-15T05:18:20.022Z,1.38
2023-02-15T05:20:49.797Z,1.60
2023-02-15T05:23:19.388Z,1.20
2023-02-15T05:26:05.099Z,1.50
2023-02-15T05:28:37.283Z,1.40
2023-02-15T05:31:09.512Z,1.33
2023-02-15T05:33:39.169Z,1.52
2023-02-15T05:36:10.252Z,1.27
2023-02-15T05:38:45.604Z,1.70
2023-02-15T05:41:15.249Z,1.30
2023-02-15T05:43:46.336Z,1.35
2023-02-15T05:46:16.424Z,1.27
2023-02-15T05:48:45.613Z,1.75
2023-02-15T05:51:16.656Z,1.60
2023-02-15T05:53:46.136Z,1.33
2023-02-15T05:56:15.355Z,1.40
2023-02-15T05:58:51.779Z,1.80
2023-02-15T06:01:23.130Z,1.25
2023-02-15T06:03:52.682Z,1.55
2023-02-15T06:06:21.819Z,1.08
2023-02-15T06:08:51.282Z,1.80
2023-02-15T06:11:20.582Z,1.13
2023-02-15T06:13:52.093Z,1.40
2023-02-15T06:16:23.929Z,1.52
2023-02-15T06:21:23.261Z,1.77
2023-02-15T06:26:37.485Z,1.30
2023-02-15T06:29:08.609Z,1.40
2023-02-15T06:31:38.053Z,1.60
2023-02-15T06:34:07.423Z,1.00
2023-02-15T06:36:37.440Z,1.63
2023-02-15T06:39:07.114Z,1.17
2023-02-15T06:41:36.393Z,1.45
2023-02-15T06:44:13.263Z,1.45
2023-02-15T06:46:43.805Z,1.48
2023-02-15T06:49:13.100Z,1.70
2023-02-15T06:51:48.060Z,2.28
2023-02-15T06:54:20.138Z,1.75
2023-02-15T06:56:49.275Z,1.98
2023-02-15T06:59:22.716Z,1.63
2023-02-15T07:01:51.987Z,1.25
2023-02-15T07:04:21.103Z,2.20
2023-02-15T07:06:56.613Z,1.88
2023-02-15T07:09:31.016Z,1.60
2023-02-15T07:14:50.113Z,1.60
2023-02-15T07:17:36.318Z,1.50
2023-02-15T07:20:14.391Z,1.50
2023-02-15T07:22:54.975Z,1.77
2023-02-15T07:25:24.162Z,1.80
2023-02-15T07:27:59.134Z,2.08
2023-02-15T07:30:31.102Z,2.33
2023-02-15T07:33:19.334Z,2.03
2023-02-15T07:35:57.524Z,2.10
2023-02-15T07:38:28.215Z,1.70
2023-02-15T07:41:07.785Z,2.17
2023-02-15T07:43:38.353Z,1.60
2023-02-15T07:46:12.448Z,2.08
2023-02-15T07:48:42.709Z,1.50
2023-02-15T07:51:15.014Z,1.63
2023-02-15T07:53:44.743Z,1.80
2023-02-15T07:56:15.549Z,2.17
2023-02-15T07:58:54.419Z,1.83
2023-02-15T08:01:27.445Z,1.52
2023-02-15T08:03:59.385Z,1.92
2023-02-15T08:06:31.091Z,1.45
2023-02-15T08:09:02.389Z,1.58
2023-02-15T08:11:45.415Z,2.10
2023-02-15T08:14:16.163Z,1.58
2023-02-15T08:16:53.984Z,1.65
2023-02-15T08:19:28.213Z,1.70
2023-02-15T08:21:59.909Z,2.45
2023-02-15T08:24:31.062Z,2.58
2023-02-15T08:27:06.475Z,2.67
2023-02-15T08:29:37.578Z,2.17
2023-02-15T08:32:10.825Z,1.80
2023-02-15T08:34:43.286Z,1.88
2023-02-15T08:37:12.624Z,2.55
2023-02-15T08:39:43.589Z,2.05
2023-02-15T08:42:18.227Z,2.60
2023-02-15T08:44:53.137Z,2.00
2023-02-15T08:47:24.275Z,2.10
2023-02-15T08:49:53.829Z,2.75
2023-02-15T08:52:22.983Z,1.95
2023-02-15T08:54:52.154Z,1.88
2023-02-15T08:57:21.263Z,1.50
2023-02-15T08:59:51.497Z,1.40
2023-02-15T09:02:25.731Z,1.95
2023-02-15T09:04:56.897Z,2.70
2023-02-15T09:07:26.058Z,2.50
2023-02-15T09:09:55.263Z,1.23
2023-02-15T09:12:31.913Z,1.80
2023-02-15T09:15:01.306Z,2.60
2023-02-15T09:17:32.577Z,1.60
2023-02-15T09:20:04.217Z,1.90
2023-02-15T09:25:03.217Z,1.45
2023-02-15T09:27:37.507Z,1.98
2023-02-15T09:30:07.637Z,1.20
2023-02-15T09:32:36.894Z,1.52
2023-02-15T09:35:10.503Z,1.23
2023-02-15T09:37:40.452Z,2.03
2023-02-15T09:40:10.649Z,1.98
2023-02-15T09:42:57.798Z,1.88
2023-02-15T09:45:43.638Z,1.70
2023-02-15T09:48:39.037Z,1.52
2023-02-15T09:54:26.979Z,1.98
2023-02-15T09:57:01.245Z,1.50
2023-02-15T09:59:37.886Z,2.33
2023-02-15T10:02:22.088Z,1.85
2023-02-15T10:05:03.430Z,1.55
2023-02-15T10:08:01.371Z,1.90
2023-02-15T10:10:41.962Z,1.75
2023-02-15T10:13:33.360Z,1.08
2023-02-15T10:16:19.633Z,1.50
2023-02-15T10:18:59.528Z,1.42
2023-02-15T10:21:42.794Z,1.42
2023-02-15T10:24:42.099Z,1.00
2023-02-15T10:27:16.196Z,0.88
2023-02-15T10:29:53.623Z,1.40
2023-02-15T10:32:26.673Z,0.80
2023-02-15T10:35:03.830Z,0.90
2023-02-15T10:37:47.902Z,1.13
2023-02-15T10:40:28.920Z,0.75
2023-02-15T10:43:13.517Z,0.68
2023-02-15T10:45:57.406Z,0.90
2023-02-15T10:48:49.702Z,0.80
2023-02-15T10:51:28.027Z,0.65
2023-02-15T10:54:14.350Z,1.10
2023-02-15T10:56:53.539Z,0.75
2023-02-15T10:59:44.774Z,1.23
2023-02-15T11:02:24.033Z,1.00
2023-02-15T11:05:07.410Z,0.90
2023-02-15T11:07:41.582Z,1.40
2023-02-15T11:10:27.713Z,1.15
2023-02-15T11:13:07.823Z,0.77
2023-02-15T11:15:40.380Z,1.15
2023-02-15T11:18:19.933Z,1.48
2023-02-15T11:20:56.779Z,0.80
2023-02-15T11:23:30.732Z,1.15
2023-02-15T11:26:02.807Z,0.70
2023-02-15T11:31:20.210Z,0.60
2023-02-15T11:33:54.729Z,0.70
2023-02-15T11:36:27.793Z,0.98
2023-02-15T11:39:04.850Z,1.10
2023-02-15T11:41:39.370Z,1.30
2023-02-15T11:44:19.240Z,0.82
2023-02-15T11:46:49.551Z,0.82
2023-02-15T11:49:25.844Z,0.70
2023-02-15T11:51:55.939Z,1.25
2023-02-15T11:54:34.106Z,0.60
2023-02-15T11:57:13.812Z,0.73
2023-02-15T11:59:49.933Z,0.65
2023-02-15T12:02:22.124Z,0.68
2023-02-15T12:04:56.888Z,0.80
2023-02-15T12:07:30.226Z,1.00
2023-02-15T12:10:14.458Z,0.70
2023-02-15T12:12:43.756Z,0.57
2023-02-15T12:15:15.762Z,1.00
2023-02-15T12:17:53.235Z,0.93
2023-02-15T12:20:37.427Z,0.80
2023-02-15T12:23:09.024Z,0.80
2023-02-15T12:25:45.812Z,1.00
2023-02-15T12:28:29.033Z,1.25
2023-02-15T12:31:04.151Z,1.02
2023-02-15T12:33:46.170Z,0.90
2023-02-15T12:36:22.352Z,1.42
2023-02-15T12:39:20.044Z,0.88
2023-02-15T12:42:02.474Z,0.70
2023-02-15T12:53:44.731Z,0.57
2023-02-15T12:56:15.564Z,0.70
2023-02-15T12:59:08.152Z,0.70
2023-02-15T13:01:37.924Z,0.70
2023-02-15T13:04:22.504Z,1.00
2023-02-15T13:06:55.109Z,1.10
2023-02-15T13:09:39.923Z,0.90
2023-02-15T13:12:19.172Z,0.90
2023-02-15T13:15:07.749Z,1.40
2023-02-15T13:17:38.513Z,1.25
2023-02-15T13:20:24.401Z,0.88
2023-02-15T13:22:57.083Z,1.27
2023-02-15T13:25:32.422Z,1.20
2023-02-15T13:28:06.408Z,1.00
2023-02-15T13:30:53.452Z,0.85
2023-02-15T13:33:28.428Z,0.50
2023-02-15T13:36:08.559Z,0.70
2023-02-15T13:38:53.384Z,0.90
2023-02-15T13:41:54.335Z,0.70
2023-02-15T13:44:39.030Z,0.70
2023-02-15T13:47:24.228Z,0.82
2023-02-15T13:50:10.936Z,0.70
2023-02-15T13:52:49.123Z,0.90
2023-02-15T13:55:38.661Z,0.60
2023-02-15T13:59:02.791Z,0.90
2023-02-15T14:01:42.753Z,0.80
2023-02-15T14:04:33.302Z,0.60
2023-02-15T14:07:23.595Z,0.70
2023-02-15T14:10:05.400Z,0.68
2023-02-15T14:12:47.214Z,1.17
2023-02-15T14:15:37.360Z,0.50
2023-02-15T14:18:19.155Z,0.90
2023-02-15T14:21:09.581Z,0.50
2023-02-15T14:23:50.937Z,0.40
2023-02-15T14:26:32.461Z,0.55
2023-02-15T14:29:13.878Z,0.77
2023-02-15T14:31:50.019Z,0.80
2023-02-15T14:34:24.902Z,1.00
2023-02-15T14:36:56.131Z,0.80
2023-02-15T14:40:00.439Z,1.10
2023-02-15T14:42:37.027Z,0.93
2023-02-15T14:45:28.889Z,0.52
2023-02-15T14:48:09.333Z,1.13
2023-02-15T14:50:47.084Z,1.00
2023-02-15T14:53:36.552Z,1.00
2023-02-15T14:56:18.690Z,0.93
2023-02-15T15:01:34.125Z,0.57
2023-02-15T15:04:10.009Z,1.20
2023-02-15T15:06:42.048Z,1.48
2023-02-15T15:11:46.807Z,1.15
2023-02-15T15:14:41.891Z,0.95
2023-02-15T15:17:15.368Z,0.90
2023-02-15T15:20:41.519Z,0.75
2023-02-15T15:23:43.436Z,1.20
2023-02-15T15:26:38.184Z,1.08
2023-02-15T15:29:09.136Z,1.00
2023-02-15T15:31:47.016Z,0.60
2023-02-15T15:34:54.686Z,0.93
2023-02-15T15:38:13.122Z,1.00
2023-02-15T15:41:10.486Z,0.93
2023-02-15T15:44:14.243Z,1.40
2023-02-15T15:47:10.124Z,1.00
2023-02-15T15:49:41.943Z,1.13
2023-02-15T15:54:56.098Z,0.80
2023-02-15T15:57:31.796Z,0.90
2023-02-15T16:00:01.750Z,0.73
2023-02-15T16:02:53.179Z,0.90
2023-02-15T16:05:22.671Z,0.85
2023-02-15T16:07:52.500Z,0.85
2023-02-15T16:10:26.090Z,0.85
2023-02-15T16:12:58.381Z,1.02
2023-02-15T16:15:32.749Z,0.73
2023-02-15T16:18:03.907Z,0.98
2023-02-15T16:20:36.086Z,0.65
2023-02-15T16:23:27.112Z,0.88
2023-02-15T16:26:11.425Z,1.05
2023-02-15T16:29:03.831Z,1.00
2023-02-15T16:34:03.320Z,0.88
2023-02-15T16:36:45.628Z,1.08
2023-02-15T16:39:22.760Z,1.05
2023-02-15T16:41:57.355Z,1.00
2023-02-15T16:44:33.476Z,1.05
2023-02-15T16:47:16.485Z,1.15
2023-02-15T16:49:49.794Z,1.08
2023-02-15T16:52:24.732Z,1.23
2023-02-15T16:54:58.844Z,0.95
2023-02-15T16:57:34.321Z,1.05
2023-02-15T17:00:09.672Z,0.90
2023-02-15T17:02:57.165Z,0.88
2023-02-15T17:05:34.824Z,0.75
2023-02-15T17:08:16.395Z,1.20
2023-02-15T17:10:48.628Z,0.88
2023-02-15T17:13:23.968Z,1.38
2023-02-15T17:16:26.158Z,1.15
2023-02-15T17:21:33.391Z,1.40
2023-02-15T17:26:44.533Z,1.73
2023-02-15T17:29:20.071Z,2.25
2023-02-15T17:31:54.510Z,1.48
2023-02-15T17:34:46.427Z,1.30
2023-02-15T17:37:25.493Z,1.65
2023-02-15T17:39:55.102Z,1.27
2023-02-15T17:42:24.628Z,0.90
2023-02-15T17:44:53.985Z,1.13
2023-02-15T17:47:30.053Z,1.15
2023-02-15T17:50:06.753Z,1.65
2023-02-15T17:52:36.262Z,1.23
2023-02-15T17:55:29.148Z,1.27
2023-02-15T17:57:58.546Z,1.55
2023-02-15T18:00:40.618Z,1.40
2023-02-15T18:03:26.835Z,1.23
2023-02-15T18:06:09.006Z,1.48
2023-02-15T18:08:51.167Z,1.30
2023-02-15T18:14:11.890Z,1.25
2023-02-15T18:16:44.107Z,1.40
2023-02-15T18:19:19.901Z,1.13
2023-02-15T18:21:52.070Z,1.20
2023-02-15T18:24:28.427Z,1.42
2023-02-15T18:26:57.891Z,0.60
2023-02-15T18:29:27.125Z,1.17
2023-02-15T18:32:03.168Z,1.15
2023-02-15T18:34:38.369Z,0.90
2023-02-15T18:37:14.581Z,1.20
2023-02-15T18:39:47.189Z,1.13
2023-02-15T18:42:23.255Z,0.75
2023-02-15T18:44:57.456Z,1.17
2023-02-15T18:47:33.947Z,1.10
2023-02-15T18:50:11.528Z,1.00
2023-02-15T18:52:41.676Z,1.38
2023-02-15T18:55:19.824Z,1.40
2023-02-15T18:57:50.264Z,1.40
2023-02-15T19:00:21.539Z,1.35
2023-02-15T19:02:56.438Z,0.82
2023-02-15T19:05:29.347Z,0.90
2023-02-15T19:08:00.416Z,0.98
2023-02-15T19:10:35.639Z,0.93
2023-02-15T19:13:09.777Z,1.00
2023-02-15T19:15:40.154Z,0.80
2023-02-15T19:18:09.438Z,1.05
2023-02-15T19:20:43.470Z,1.15
2023-02-15T19:23:18.899Z,1.10
2023-02-15T19:25:55.206Z,1.23
2023-02-15T19:28:32.277Z,1.08
2023-02-15T19:31:01.596Z,0.57
2023-02-15T19:33:31.334Z,1.10
2023-02-15T19:36:02.847Z,1.00
2023-02-15T19:38:36.148Z,1.42
2023-02-15T19:41:22.858Z,1.02
2023-02-15T19:43:55.527Z,1.10
2023-02-15T19:46:36.714Z,1.17
2023-02-15T19:49:06.135Z,0.80
2023-02-15T19:51:39.034Z,1.20
2023-02-15T19:54:23.213Z,1.23
2023-02-15T19:56:52.522Z,0.80
2023-02-15T19:59:26.559Z,0.60
2023-02-15T20:01:56.272Z,1.08
2023-02-15T20:04:25.979Z,1.33
2023-02-15T20:06:59.832Z,0.90
2023-02-15T20:09:33.450Z,1.30
2023-02-15T20:14:38.493Z,1.10
2023-02-15T20:17:07.585Z,1.35
2023-02-15T20:19:38.554Z,0.88
2023-02-15T20:22:19.774Z,1.20
2023-02-15T20:24:48.978Z,1.10
2023-02-15T20:27:18.834Z,0.98
2023-02-15T20:32:32.701Z,1.35
2023-02-15T20:35:03.501Z,0.98
2023-02-15T20:37:34.620Z,1.30
2023-02-15T20:40:03.753Z,1.00
2023-02-15T20:42:32.986Z,1.02
2023-02-15T20:45:02.825Z,1.20
2023-02-15T20:47:33.019Z,1.10
2023-02-15T20:50:02.301Z,1.00
2023-02-15T20:52:35.249Z,0.70
2023-02-15T20:55:04.948Z,1.02
2023-02-15T20:57:34.156Z,0.93
2023-02-15T21:00:05.028Z,0.85
2023-02-15T21:03:07.091Z,0.93
2023-02-15T21:05:36.307Z,0.85
2023-02-15T21:08:21.696Z,0.55
2023-02-15T21:11:00.723Z,1.17
2023-02-15T21:13:35.582Z,1.00
2023-02-15T21:16:05.262Z,1.17
2023-02-15T21:18:46.072Z,0.75
2023-02-15T21:21:29.439Z,0.65
2023-02-15T21:24:16.352Z,0.80
2023-02-15T21:26:53.949Z,0.88
2023-02-15T21:29:28.423Z,1.10
2023-02-15T21:32:07.346Z,1.08
2023-02-15T21:34:36.672Z,0.70
2023-02-15T21:37:06.233Z,1.00
2023-02-15T21:39:38.539Z,0.63
2023-02-15T21:42:25.287Z,0.63
2023-02-15T21:45:07.528Z,0.88
2023-02-15T21:47:49.626Z,0.63
2023-02-15T21:50:39.678Z,0.70
2023-02-15T21:53:12.534Z,0.70
2023-02-15T21:55:43.898Z,0.60
2023-02-15T21:58:22.229Z,0.70
2023-02-15T22:00:59.400Z,0.57
2023-02-15T22:03:39.442Z,0.47
2023-02-15T22:06:13.812Z,0.70
2023-02-15T22:08:43.262Z,0.70
2023-02-15T22:11:16.697Z,0.68
2023-02-15T22:13:46.767Z,0.80
2023-02-15T22:16:19.065Z,0.57
2023-02-15T22:18:48.805Z,0.57
2023-02-15T22:21:18.760Z,0.93
2023-02-15T22:23:52.937Z,0.80
2023-02-15T22:26:26.221Z,0.68
2023-02-15T22:28:55.653Z,0.70
2023-02-15T22:31:25.562Z,0.65
2023-02-15T22:34:05.407Z,0.68
2023-02-15T22:36:45.675Z,0.70
2023-02-15T22:39:15.052Z,0.70
2023-02-15T22:41:48.049Z,0.38
2023-02-15T22:44:23.876Z,0.70
2023-02-15T22:46:53.419Z,0.90
2023-02-15T22:49:22.687Z,0.80
2023-02-15T22:51:52.564Z,1.10
2023-02-15T22:54:22.010Z,0.90
2023-02-15T22:56:58.434Z,0.50
2023-02-15T22:59:31.633Z,0.50
2023-02-15T23:02:02.990Z,0.80
2023-02-15T23:04:32.250Z,0.90
2023-02-15T23:07:01.499Z,0.80
2023-02-15T23:09:30.879Z,0.77
2023-02-15T23:12:01.968Z,0.88
2023-02-15T23:14:41.019Z,0.93
2023-02-15T23:17:11.038Z,0.73
2023-02-15T23:19:40.119Z,0.80
2023-02-15T23:22:15.254Z,1.02
2023-02-15T23:24:47.106Z,0.82
2023-02-15T23:27:33.100Z,0.80
2023-02-15T23:30:04.373Z,0.70
2023-02-15T23:32:34.630Z,0.80
2023-02-15T23:35:03.871Z,0.60
2023-02-15T23:37:33.103Z,0.70
2023-02-15T23:40:20.168Z,0.55
2023-02-15T23:42:51.809Z,0.70
2023-02-15T23:45:25.440Z,0.85
2023-02-15T23:48:08.198Z,0.90
2023-02-15T23:50:37.498Z,1.00
2023-02-15T23:53:06.729Z,0.80
2023-02-15T23:55:38.220Z,0.88
2023-02-15T23:58:16.593Z,0.80
